createdAt,value
2023-02-14T00:00:57.622Z,0.70
2023-02-14T00:03:24.628Z,0.70
2023-02-14T00:05:51.379Z,0.70
2023-02-14T00:08:18.844Z,0.70
2023-02-14T00:10:45.953Z,0.70
2023-02-14T00:13:12.706Z,0.70
2023-02-14T00:15:39.396Z,0.80
2023-02-14T00:18:06.444Z,0.80
2023-02-14T00:20:33.356Z,0.90
2023-02-14T00:23:00.941Z,0.90
2023-02-14T00:25:27.802Z,1.00
2023-02-14T00:27:55.524Z,1.00
2023-02-14T00:30:22.634Z,1.10
2023-02-14T00:32:49.596Z,1.10
2023-02-14T00:35:17.034Z,1.00
2023-02-14T00:37:45.266Z,1.00
2023-02-14T00:40:12.540Z,1.00
2023-02-14T00:42:39.673Z,1.10
2023-02-14T00:45:06.741Z,1.10
2023-02-14T00:47:35.333Z,1.20
2023-02-14T00:50:03.040Z,1.20
2023-02-14T00:52:31.172Z,1.30
2023-02-14T00:54:58.357Z,1.30
2023-02-14T00:57:25.232Z,1.40
2023-02-14T00:59:52.028Z,1.40
2023-02-14T01:02:18.815Z,1.40
2023-02-14T01:04:45.655Z,1.30
2023-02-14T01:07:12.572Z,1.30
2023-02-14T01:09:39.382Z,1.30
2023-02-14T01:12:06.308Z,1.20
2023-02-14T01:14:34.044Z,1.20
2023-02-14T01:17:01.957Z,1.20
2023-02-14T01:19:28.854Z,1.20
2023-02-14T01:21:55.701Z,1.20
2023-02-14T01:24:22.918Z,1.20
2023-02-14T01:26:49.695Z,1.20
2023-02-14T01:29:16.442Z,1.20
2023-02-14T01:31:44.900Z,1.20
2023-02-14T01:34:12.814Z,1.30
2023-02-14T01:36:40.067Z,1.20
2023-02-14T01:39:16.070Z,1.10
2023-02-14T01:41:48.525Z,1.10
2023-02-14T01:44:16.860Z,1.20
2023-02-14T01:46:45.419Z,1.20
2023-02-14T01:49:21.073Z,1.20
2023-02-14T01:52:03.117Z,1.20
2023-02-14T01:54:33.090Z,1.30
2023-02-14T01:57:04.896Z,1.30
2023-02-14T01:59:36.889Z,1.20
2023-02-14T02:02:05.521Z,1.30
2023-02-14T02:04:38.988Z,1.30
2023-02-14T02:07:17.475Z,1.30
2023-02-14T02:09:49.176Z,1.20
2023-02-14T02:12:15.953Z,1.10
2023-02-14T02:14:44.210Z,1.10
2023-02-14T02:17:32.294Z,1.10
2023-02-14T02:20:40.854Z,1.20
2023-02-14T02:23:34.711Z,1.30
2023-02-14T02:26:39.861Z,1.30
2023-02-14T02:29:37.792Z,1.30
2023-02-14T02:32:18.565Z,1.30
2023-02-14T02:35:10.218Z,1.30
2023-02-14T02:37:49.939Z,1.40
2023-02-14T02:40:16.657Z,1.50
2023-02-14T02:42:54.041Z,1.50
2023-02-14T02:46:14.047Z,1.40
2023-02-14T02:48:53.410Z,1.50
2023-02-14T02:51:49.017Z,1.50
2023-02-14T02:54:26.315Z,1.50
2023-02-14T02:56:57.665Z,1.50
2023-02-14T02:59:38.344Z,1.60
2023-02-14T03:02:16.400Z,1.60
2023-02-14T03:04:55.324Z,1.60
2023-02-14T03:07:37.500Z,1.60
2023-02-14T03:10:11.076Z,1.70
2023-02-14T03:12:44.327Z,1.80
2023-02-14T03:15:31.400Z,1.80
2023-02-14T03:18:13.725Z,1.80
2023-02-14T03:20:54.072Z,1.90
2023-02-14T03:23:30.188Z,1.90
2023-02-14T03:26:18.546Z,1.90
2023-02-14T03:29:22.663Z,2.00
2023-02-14T03:32:13.936Z,2.00
2023-02-14T03:34:43.879Z,2.10
2023-02-14T03:37:20.508Z,2.10
2023-02-14T03:40:06.258Z,2.10
2023-02-14T03:42:40.162Z,2.10
2023-02-14T03:45:12.095Z,2.10
2023-02-14T03:47:42.239Z,2.10
2023-02-14T03:50:18.658Z,2.10
2023-02-14T03:52:49.086Z,2.00
2023-02-14T03:55:19.920Z,2.00
2023-02-14T03:58:11.110Z,1.90
2023-02-14T04:00:41.914Z,1.90
2023-02-14T04:03:14.300Z,1.80
2023-02-14T04:05:43.836Z,1.80
2023-02-14T04:08:12.233Z,1.70
2023-02-14T04:10:40.126Z,1.70
2023-02-14T04:13:06.943Z,1.60
2023-02-14T04:15:33.982Z,1.50
2023-02-14T04:18:22.257Z,1.50
2023-02-14T04:20:51.438Z,1.40
2023-02-14T04:23:18.249Z,1.40
2023-02-14T04:25:45.671Z,1.40
2023-02-14T04:28:13.134Z,1.30
2023-02-14T04:30:39.999Z,1.30
2023-02-14T04:33:08.179Z,1.30
2023-02-14T04:35:35.358Z,1.40
2023-02-14T04:38:03.264Z,1.40
2023-02-14T04:40:30.290Z,1.50
2023-02-14T04:42:57.563Z,1.50
2023-02-14T04:45:24.298Z,1.50
2023-02-14T04:47:51.072Z,1.50
2023-02-14T04:50:23.306Z,1.50
2023-02-14T04:52:50.045Z,1.50
2023-02-14T04:55:17.043Z,1.40
2023-02-14T04:57:44.236Z,1.40
2023-02-14T05:00:11.976Z,1.30
2023-02-14T05:02:38.812Z,1.30
2023-02-14T05:05:06.048Z,1.30
2023-02-14T05:07:32.856Z,1.30
2023-02-14T05:09:59.733Z,1.30
2023-02-14T05:12:26.572Z,1.30
2023-02-14T05:14:53.286Z,1.40
2023-02-14T05:17:20.161Z,1.40
2023-02-14T05:19:50.872Z,1.40
2023-02-14T05:22:18.593Z,1.40
2023-02-14T05:24:45.465Z,1.40
2023-02-14T05:27:12.408Z,1.50
2023-02-14T05:29:39.194Z,1.40
2023-02-14T05:32:05.989Z,1.40
2023-02-14T05:34:32.800Z,1.40
2023-02-14T05:36:59.764Z,1.40
2023-02-14T05:39:26.673Z,1.50
2023-02-14T05:41:53.517Z,1.50
2023-02-14T05:44:20.626Z,1.50
2023-02-14T05:46:47.468Z,1.50
2023-02-14T05:49:14.492Z,1.50
2023-02-14T05:51:41.281Z,1.40
2023-02-14T05:54:10.030Z,1.30
2023-02-14T05:56:37.728Z,1.20
2023-02-14T05:59:04.545Z,1.20
2023-02-14T06:01:31.434Z,1.10
2023-02-14T06:03:58.174Z,1.10
2023-02-14T06:06:25.006Z,1.10
2023-02-14T06:08:58.540Z,1.10
2023-02-14T06:11:32.164Z,1.10
2023-02-14T06:13:58.954Z,1.10
2023-02-14T06:16:25.762Z,1.10
2023-02-14T06:18:52.526Z,1.10
2023-02-14T06:21:19.291Z,1.20
2023-02-14T06:23:46.223Z,1.10
2023-02-14T06:26:13.002Z,1.20
2023-02-14T06:28:40.022Z,1.10
2023-02-14T06:31:17.323Z,1.20
2023-02-14T06:33:44.246Z,1.20
2023-02-14T06:36:11.434Z,1.20
2023-02-14T06:38:38.405Z,1.20
2023-02-14T06:41:09.202Z,1.20
2023-02-14T06:43:36.824Z,1.20
2023-02-14T06:46:04.150Z,1.20
2023-02-14T06:48:31.034Z,1.20
2023-02-14T06:50:58.226Z,1.20
2023-02-14T06:53:25.196Z,1.20
2023-02-14T06:55:51.951Z,1.20
2023-02-14T06:58:18.701Z,1.30
2023-02-14T07:00:46.128Z,1.40
2023-02-14T07:03:12.964Z,1.40
2023-02-14T07:05:39.785Z,1.40
2023-02-14T07:08:08.046Z,1.30
2023-02-14T07:10:35.330Z,1.40
2023-02-14T07:13:02.334Z,1.40
2023-02-14T07:15:29.260Z,1.50
2023-02-14T07:17:56.112Z,1.50
2023-02-14T07:20:22.854Z,1.50
2023-02-14T07:22:49.673Z,1.50
2023-02-14T07:25:16.447Z,1.40
2023-02-14T07:27:44.598Z,1.30
2023-02-14T07:30:12.865Z,1.20
2023-02-14T07:32:41.882Z,1.20
2023-02-14T07:35:08.912Z,1.10
2023-02-14T07:37:36.077Z,1.20
2023-02-14T07:40:03.996Z,1.30
2023-02-14T07:42:30.750Z,1.30
2023-02-14T07:44:57.512Z,1.30
2023-02-14T07:47:25.065Z,1.40
2023-02-14T07:49:52.033Z,1.50
2023-02-14T07:52:18.820Z,1.50
2023-02-14T07:54:45.534Z,1.60
2023-02-14T07:57:12.268Z,1.60
2023-02-14T07:59:39.681Z,1.50
2023-02-14T08:02:06.785Z,1.50
2023-02-14T08:04:34.005Z,1.50
2023-02-14T08:07:00.770Z,1.60
2023-02-14T08:09:27.704Z,1.60
2023-02-14T08:12:15.821Z,1.70
2023-02-14T08:14:43.959Z,1.80
2023-02-14T08:17:13.314Z,1.90
2023-02-14T08:19:41.030Z,1.90
2023-02-14T08:22:09.363Z,1.90
2023-02-14T08:24:36.176Z,1.80
2023-02-14T08:27:03.029Z,1.90
2023-02-14T08:29:29.815Z,1.90
2023-02-14T08:32:00.211Z,1.90
2023-02-14T08:34:27.077Z,2.00
2023-02-14T08:36:54.661Z,2.10
2023-02-14T08:39:21.481Z,2.20
2023-02-14T08:41:48.271Z,2.30
2023-02-14T08:44:16.459Z,2.30
2023-02-14T08:46:43.251Z,2.30
2023-02-14T08:49:10.405Z,2.30
2023-02-14T08:51:37.408Z,2.30
2023-02-14T08:54:04.219Z,2.20
2023-02-14T08:56:30.998Z,2.10
2023-02-14T08:58:58.444Z,2.10
2023-02-14T09:01:25.415Z,2.10
2023-02-14T09:03:52.251Z,2.20
2023-02-14T09:06:19.056Z,2.20
2023-02-14T09:08:46.472Z,2.20
2023-02-14T09:11:16.280Z,2.20
2023-02-14T09:13:43.529Z,2.20
2023-02-14T09:16:12.198Z,2.20
2023-02-14T09:18:40.083Z,2.20
2023-02-14T09:21:11.963Z,2.20
2023-02-14T09:23:39.361Z,2.20
2023-02-14T09:26:09.628Z,2.20
2023-02-14T09:28:37.724Z,2.20
2023-02-14T09:31:14.017Z,2.10
2023-02-14T09:33:41.286Z,2.10
2023-02-14T09:36:14.094Z,2.10
2023-02-14T09:38:40.993Z,2.10
2023-02-14T09:41:09.579Z,2.20
2023-02-14T09:43:41.906Z,2.20
2023-02-14T09:46:14.321Z,2.20
2023-02-14T09:48:46.151Z,2.30
2023-02-14T09:51:23.330Z,2.40
2023-02-14T09:54:18.890Z,2.60
2023-02-14T09:56:54.081Z,2.70
2023-02-14T09:59:39.451Z,2.60
2023-02-14T10:02:06.691Z,2.60
2023-02-14T10:04:54.688Z,2.60
2023-02-14T10:07:55.848Z,2.50
2023-02-14T10:10:30.955Z,2.50
2023-02-14T10:13:05.348Z,2.50
2023-02-14T10:15:40.160Z,2.50
2023-02-14T10:18:25.058Z,2.50
2023-02-14T10:20:54.514Z,2.60
2023-02-14T10:23:21.277Z,2.70
2023-02-14T10:26:02.465Z,2.80
2023-02-14T10:28:36.111Z,2.90
2023-02-14T10:31:14.909Z,2.90
2023-02-14T10:33:49.874Z,2.80
2023-02-14T10:37:01.179Z,2.80
2023-02-14T10:39:48.726Z,2.80
2023-02-14T10:42:39.980Z,2.80
2023-02-14T10:45:26.267Z,2.80
2023-02-14T10:48:26.620Z,2.80
2023-02-14T10:51:11.120Z,2.80
2023-02-14T10:53:58.816Z,2.90
2023-02-14T10:56:47.013Z,3.10
2023-02-14T10:59:21.818Z,3.10
2023-02-14T11:01:52.143Z,3.10
2023-02-14T11:04:21.562Z,3.20
2023-02-14T11:06:51.621Z,3.20
2023-02-14T11:09:19.350Z,3.30
2023-02-14T11:11:59.237Z,3.40
2023-02-14T11:14:35.837Z,3.40
2023-02-14T11:17:31.705Z,3.40
2023-02-14T11:20:07.149Z,3.40
2023-02-14T11:22:35.271Z,3.40
2023-02-14T11:25:05.160Z,3.40
2023-02-14T11:27:32.880Z,3.50
2023-02-14T11:30:02.078Z,3.60
2023-02-14T11:32:34.268Z,3.40
2023-02-14T11:35:19.926Z,3.40
2023-02-14T11:37:53.389Z,3.40
2023-02-14T11:40:30.842Z,3.30
2023-02-14T11:43:29.948Z,3.30
2023-02-14T11:46:07.615Z,3.40
2023-02-14T11:48:38.790Z,3.40
2023-02-14T11:51:16.435Z,3.40
2023-02-14T11:53:53.450Z,3.40
2023-02-14T11:56:22.126Z,3.40
2023-02-14T11:58:59.889Z,3.40
2023-02-14T12:01:30.991Z,3.30
2023-02-14T12:04:01.943Z,3.30
2023-02-14T12:06:33.190Z,3.40
2023-02-14T12:09:12.304Z,3.40
2023-02-14T12:11:39.313Z,3.50
2023-02-14T12:14:20.094Z,3.50
2023-02-14T12:16:56.954Z,3.60
2023-02-14T12:19:50.594Z,3.70
2023-02-14T12:22:22.944Z,3.70
2023-02-14T12:25:22.901Z,3.80
2023-02-14T12:27:52.609Z,3.90
2023-02-14T12:30:22.154Z,3.90
2023-02-14T12:32:56.705Z,3.90
2023-02-14T12:36:00.693Z,3.80
2023-02-14T12:38:46.109Z,3.70
2023-02-14T12:41:18.865Z,3.70
2023-02-14T12:43:51.036Z,3.70
2023-02-14T12:48:57.051Z,3.80
2023-02-14T12:51:29.894Z,3.90
2023-02-14T12:54:23.558Z,3.90
2023-02-14T12:56:59.321Z,3.90
2023-02-14T12:59:26.027Z,4.00
2023-02-14T13:01:59.444Z,3.90
2023-02-14T13:04:53.231Z,3.90
2023-02-14T13:07:25.909Z,4.00
2023-02-14T13:10:12.386Z,4.00
2023-02-14T13:12:49.358Z,4.00
2023-02-14T13:15:41.048Z,4.00
2023-02-14T13:18:34.179Z,4.00
2023-02-14T13:21:04.894Z,4.10
2023-02-14T13:23:46.552Z,4.10
2023-02-14T13:26:18.971Z,4.10
2023-02-14T13:28:58.593Z,4.10
2023-02-14T13:31:28.793Z,4.10
2023-02-14T13:34:05.533Z,4.10
2023-02-14T13:36:33.436Z,4.10
2023-02-14T13:39:01.197Z,4.00
2023-02-14T13:41:28.341Z,4.00
2023-02-14T13:44:01.644Z,3.90
2023-02-14T13:46:34.409Z,3.90
2023-02-14T13:49:16.409Z,4.00
2023-02-14T13:51:44.641Z,3.90
2023-02-14T13:54:32.601Z,3.90
2023-02-14T13:57:24.965Z,3.80
2023-02-14T14:00:18.010Z,3.80
2023-02-14T14:02:47.470Z,3.80
2023-02-14T14:05:42.794Z,3.80
2023-02-14T14:08:22.263Z,3.90
2023-02-14T14:10:54.354Z,3.90
2023-02-14T14:13:42.258Z,3.90
2023-02-14T14:16:27.547Z,3.90
2023-02-14T14:19:09.309Z,3.80
2023-02-14T14:22:05.613Z,3.80
2023-02-14T14:24:34.764Z,3.80
2023-02-14T14:27:03.234Z,3.70
2023-02-14T14:29:48.646Z,3.70
2023-02-14T14:32:27.730Z,3.70
2023-02-14T14:35:03.507Z,3.70
2023-02-14T14:37:36.118Z,3.70
2023-02-14T14:40:06.912Z,3.70
2023-02-14T14:42:39.933Z,3.70
2023-02-14T14:45:29.498Z,3.70
2023-02-14T14:47:59.268Z,3.70
2023-02-14T14:50:30.571Z,3.70
2023-02-14T14:53:09.597Z,3.60
2023-02-14T14:55:39.504Z,3.50
2023-02-14T14:58:28.100Z,3.40
2023-02-14T15:00:55.452Z,3.40
2023-02-14T15:03:28.058Z,3.40
2023-02-14T15:06:15.843Z,3.20
2023-02-14T15:08:42.806Z,3.20
2023-02-14T15:11:38.636Z,3.20
2023-02-14T15:14:19.674Z,3.20
2023-02-14T15:16:53.870Z,3.30
2023-02-14T15:19:38.595Z,3.30
2023-02-14T15:22:17.795Z,3.30
2023-02-14T15:24:45.215Z,3.40
2023-02-14T15:27:17.889Z,3.40
2023-02-14T15:30:00.949Z,3.30
2023-02-14T15:32:32.201Z,3.20
2023-02-14T15:35:03.050Z,3.10
2023-02-14T15:37:31.287Z,3.20
2023-02-14T15:39:59.310Z,3.20
2023-02-14T15:42:32.960Z,3.30
2023-02-14T15:45:27.860Z,3.30
2023-02-14T15:48:00.617Z,3.20
2023-02-14T15:50:36.280Z,3.20
2023-02-14T15:53:20.263Z,3.10
2023-02-14T15:55:49.696Z,3.00
2023-02-14T15:58:25.391Z,2.90
2023-02-14T16:00:53.830Z,2.80
2023-02-14T16:03:30.970Z,2.70
2023-02-14T16:05:59.599Z,2.60
2023-02-14T16:08:34.019Z,2.70
2023-02-14T16:11:15.808Z,2.70
2023-02-14T16:13:45.328Z,2.70
2023-02-14T16:16:15.041Z,2.70
2023-02-14T16:18:43.154Z,2.80
2023-02-14T16:21:39.559Z,2.80
2023-02-14T16:24:13.384Z,2.80
2023-02-14T16:26:45.206Z,2.80
2023-02-14T16:29:17.170Z,2.80
2023-02-14T16:32:14.060Z,2.80
2023-02-14T16:34:34.799Z,2.80
2023-02-14T16:37:08.391Z,2.90
2023-02-14T16:39:35.980Z,2.80
2023-02-14T16:42:04.728Z,2.80
2023-02-14T16:44:31.596Z,2.90
2023-02-14T16:46:58.335Z,2.90
2023-02-14T16:49:25.333Z,2.90
2023-02-14T16:51:53.257Z,2.80
2023-02-14T16:54:21.843Z,2.80
2023-02-14T16:56:56.742Z,2.80
2023-02-14T16:59:24.092Z,2.90
2023-02-14T17:01:51.240Z,2.80
2023-02-14T17:04:18.170Z,2.80
2023-02-14T17:06:57.115Z,2.80
2023-02-14T17:09:34.806Z,2.80
2023-02-14T17:12:06.498Z,2.70
2023-02-14T17:14:38.243Z,2.70
2023-02-14T17:17:05.360Z,2.60
2023-02-14T17:19:33.549Z,2.60
2023-02-14T17:22:00.613Z,2.60
2023-02-14T17:24:27.532Z,2.60
2023-02-14T17:26:54.539Z,2.60
2023-02-14T17:29:21.329Z,2.60
2023-02-14T17:31:48.286Z,2.50
2023-02-14T17:34:16.028Z,2.60
2023-02-14T17:36:42.949Z,2.50
2023-02-14T17:39:09.756Z,2.60
2023-02-14T17:41:36.495Z,2.60
2023-02-14T17:44:05.832Z,2.60
2023-02-14T17:46:32.979Z,2.70
2023-02-14T17:49:02.532Z,2.60
2023-02-14T17:51:29.546Z,2.60
2023-02-14T17:53:58.875Z,2.60
2023-02-14T17:56:26.532Z,2.60
2023-02-14T17:58:55.141Z,2.60
2023-02-14T18:01:26.153Z,2.60
2023-02-14T18:03:56.188Z,2.60
2023-02-14T18:06:23.270Z,2.60
2023-02-14T18:08:53.001Z,2.70
2023-02-14T18:11:21.258Z,2.60
2023-02-14T18:13:49.666Z,2.60
2023-02-14T18:16:18.775Z,2.60
2023-02-14T18:18:46.481Z,2.50
2023-02-14T18:21:15.168Z,2.40
2023-02-14T18:23:42.313Z,2.40
2023-02-14T18:26:13.889Z,2.30
2023-02-14T18:28:41.590Z,2.30
2023-02-14T18:31:11.343Z,2.30
2023-02-14T18:33:39.316Z,2.30
2023-02-14T18:36:08.510Z,2.40
2023-02-14T18:38:35.721Z,2.40
2023-02-14T18:41:03.945Z,2.40
2023-02-14T18:43:30.917Z,2.50
2023-02-14T18:46:03.577Z,2.60
2023-02-14T18:48:31.370Z,2.70
2023-02-14T18:51:19.368Z,2.70
2023-02-14T18:53:52.171Z,2.70
2023-02-14T18:56:21.345Z,2.80
2023-02-14T18:58:52.745Z,2.70
2023-02-14T19:01:26.280Z,2.70
2023-02-14T19:03:54.563Z,2.70
2023-02-14T19:06:22.037Z,2.70
2023-02-14T19:08:49.624Z,2.60
2023-02-14T19:11:21.720Z,2.60
2023-02-14T19:13:56.848Z,2.60
2023-02-14T19:16:30.766Z,2.50
2023-02-14T19:18:59.012Z,2.40
2023-02-14T19:21:31.916Z,2.40
2023-02-14T19:23:58.914Z,2.30
2023-02-14T19:26:29.661Z,2.30
2023-02-14T19:29:02.220Z,2.20
2023-02-14T19:31:29.554Z,2.20
2023-02-14T19:33:56.953Z,2.20
2023-02-14T19:36:24.229Z,2.30
2023-02-14T19:38:53.403Z,2.30
2023-02-14T19:41:23.513Z,2.30
2023-02-14T19:43:56.768Z,2.30
2023-02-14T19:46:24.241Z,2.30
2023-02-14T19:48:51.420Z,2.30
2023-02-14T19:51:23.760Z,2.20
2023-02-14T19:53:50.859Z,2.20
2023-02-14T19:56:30.225Z,2.20
2023-02-14T19:58:57.460Z,2.20
2023-02-14T20:01:36.046Z,2.20
2023-02-14T20:04:04.691Z,2.20
2023-02-14T20:06:31.747Z,2.30
2023-02-14T20:08:58.645Z,2.30
2023-02-14T20:11:35.576Z,2.30
2023-02-14T20:14:03.619Z,2.30
2023-02-14T20:16:31.981Z,2.40
2023-02-14T20:19:01.889Z,2.40
2023-02-14T20:21:29.090Z,2.40
2023-02-14T20:24:01.217Z,2.40
2023-02-14T20:26:31.069Z,2.40
2023-02-14T20:29:06.019Z,2.40
2023-02-14T20:31:34.453Z,2.40
2023-02-14T20:34:02.603Z,2.40
2023-02-14T20:36:34.951Z,2.40
2023-02-14T20:39:04.463Z,2.40
2023-02-14T20:41:34.575Z,2.30
2023-02-14T20:44:10.588Z,2.30
2023-02-14T20:46:38.084Z,2.30
2023-02-14T20:49:05.492Z,2.30
2023-02-14T20:51:33.181Z,2.30
2023-02-14T20:54:02.538Z,2.30
2023-02-14T20:56:30.095Z,2.30
2023-02-14T20:58:59.465Z,2.30
2023-02-14T21:01:26.719Z,2.30
2023-02-14T21:03:54.926Z,2.30
2023-02-14T21:06:25.278Z,2.30
2023-02-14T21:08:52.313Z,2.30
2023-02-14T21:11:21.006Z,2.30
2023-02-14T21:13:48.395Z,2.20
2023-02-14T21:16:19.578Z,2.20
2023-02-14T21:18:52.486Z,2.20
2023-02-14T21:21:23.566Z,2.20
2023-02-14T21:23:51.823Z,2.20
2023-02-14T21:26:19.815Z,2.20
2023-02-14T21:28:47.066Z,2.30
2023-02-14T21:31:17.233Z,2.20
2023-02-14T21:33:44.300Z,2.20
2023-02-14T21:36:14.976Z,2.20
2023-02-14T21:38:42.169Z,2.20
2023-02-14T21:41:15.187Z,2.20
2023-02-14T21:43:44.836Z,2.10
2023-02-14T21:46:14.713Z,2.20
2023-02-14T21:49:00.857Z,2.20
2023-02-14T21:51:28.651Z,2.30
2023-02-14T21:53:56.827Z,2.30
2023-02-14T21:56:24.000Z,2.30
2023-02-14T21:58:52.738Z,2.20
2023-02-14T22:01:23.104Z,2.30
2023-02-14T22:03:51.254Z,2.20
2023-02-14T22:06:18.351Z,2.30
2023-02-14T22:08:45.169Z,2.30
2023-02-14T22:11:15.430Z,2.30
2023-02-14T22:13:42.947Z,2.30
2023-02-14T22:16:12.546Z,2.40
2023-02-14T22:18:40.515Z,2.40
2023-02-14T22:21:14.074Z,2.30
2023-02-14T22:23:40.967Z,2.20
2023-02-14T22:26:14.990Z,2.20
2023-02-14T22:28:43.515Z,2.20
2023-02-14T22:31:11.724Z,2.10
2023-02-14T22:33:38.954Z,2.10
2023-02-14T22:36:07.472Z,2.10
2023-02-14T22:38:35.157Z,2.00
2023-02-14T22:41:19.784Z,2.10
2023-02-14T22:43:47.255Z,2.00
2023-02-14T22:46:16.906Z,2.00
2023-02-14T22:48:44.428Z,2.00
2023-02-14T22:51:21.193Z,2.00
2023-02-14T22:53:49.373Z,2.00
2023-02-14T22:56:21.507Z,2.00
2023-02-14T22:58:48.305Z,1.90
2023-02-14T23:01:16.416Z,1.80
2023-02-14T23:03:54.221Z,1.80
2023-02-14T23:06:21.056Z,1.80
2023-02-14T23:08:47.960Z,1.70
2023-02-14T23:11:21.029Z,1.70
2023-02-14T23:14:06.815Z,1.70
2023-02-14T23:16:52.390Z,1.70
2023-02-14T23:19:40.733Z,1.70
2023-02-14T23:22:20.421Z,1.60
2023-02-14T23:24:49.246Z,1.60
2023-02-14T23:27:18.217Z,1.50
2023-02-14T23:29:45.068Z,1.50
2023-02-14T23:32:12.282Z,1.50
2023-02-14T23:34:41.627Z,1.50
2023-02-14T23:37:09.383Z,1.60
2023-02-14T23:39:37.695Z,1.60
2023-02-14T23:42:06.530Z,1.60
2023-02-14T23:44:34.056Z,1.60
2023-02-14T23:47:04.277Z,1.70
2023-02-14T23:49:34.188Z,1.70
2023-02-14T23:52:01.846Z,1.70
2023-02-14T23:54:28.716Z,1.70
2023-02-14T23:56:57.468Z,1.70
2023-02-14T23:59:24.487Z,1.70
